Time;durP1;ratioP1;P1;durP2;ratioP2;P2;SDS_P1;SDS_P2;PMS_P1;PMS_P2;Temp;Humidity;BMP_temperature;BMP_pressure;BME280_temperature;BME280_humidity;BME280_pressure;Samples;Min_cycle;Max_cycle;Signal;HPM_P1;HPM_P2
2024/01/03 00:00:28;;;;;;;15.32;1.45;;;11.60;99.90;;;;;;5089248;28;20024;-81
2024/01/03 00:02:58;;;;;;;17.08;2.42;;;11.60;99.90;;;;;;5105990;28;20028;-82
2024/01/03 00:05:31;;;;;;;8.68;0.73;;;11.60;99.90;;;;;;5087566;28;20032;-85
2024/01/03 00:07:57;;;;;;;7.93;0.70;;;11.60;99.90;;;;;;5093422;28;20031;-85
2024/01/03 00:10:26;;;;;;;8.73;0.90;;;11.70;99.90;;;;;;5089781;28;20028;-82
2024/01/03 00:12:52;;;;;;;11.85;0.90;;;11.70;99.90;;;;;;5092517;28;20024;-82
2024/01/03 00:15:36;;;;;;;10.27;1.08;;;11.70;99.90;;;;;;5090149;28;20110;-82
2024/01/03 00:18:05;;;;;;;12.40;0.95;;;11.70;99.90;;;;;;5087571;28;20353;-80
2024/01/03 00:20:32;;;;;;;13.60;1.00;;;11.70;99.90;;;;;;5089572;28;20360;-82
2024/01/03 00:22:59;;;;;;;11.20;0.70;;;11.70;99.90;;;;;;5088482;28;20120;-82
2024/01/03 00:25:29;;;;;;;11.18;0.68;;;11.70;99.90;;;;;;5093414;28;20061;-80
2024/01/03 00:27:56;;;;;;;15.48;1.58;;;11.70;99.90;;;;;;5109431;28;20551;-82
2024/01/03 00:30:22;;;;;;;11.73;1.42;;;11.70;99.90;;;;;;5092670;28;20050;-82
2024/01/03 00:32:48;;;;;;;10.70;1.00;;;11.70;99.90;;;;;;5089026;28;20475;-83
2024/01/03 00:35:14;;;;;;;7.13;0.88;;;11.70;99.90;;;;;;5093294;28;20049;-83
2024/01/03 00:37:40;;;;;;;5.75;0.70;;;11.70;99.90;;;;;;5089530;28;20043;-85
2024/01/03 00:40:47;;;;;;;9.85;0.80;;;11.80;99.90;;;;;;5091648;28;20039;-80
2024/01/03 00:43:13;;;;;;;9.48;0.88;;;11.80;99.90;;;;;;5080438;28;20040;-81
2024/01/03 00:45:39;;;;;;;8.15;0.88;;;11.80;99.90;;;;;;5089945;28;20073;-82
2024/01/03 00:48:05;;;;;;;9.60;1.15;;;11.80;99.90;;;;;;5107050;28;20035;-83
2024/01/03 00:50:30;;;;;;;8.48;1.13;;;11.80;99.90;;;;;;5109369;28;20470;-82
2024/01/03 00:52:56;;;;;;;10.85;0.80;;;11.80;99.90;;;;;;5107964;28;20024;-82
2024/01/03 00:55:21;;;;;;;11.88;1.00;;;11.70;99.90;;;;;;5103815;28;20089;-82
2024/01/03 00:57:47;;;;;;;17.73;1.00;;;11.70;99.90;;;;;;5109245;28;20024;-81
2024/01/03 01:00:13;;;;;;;14.00;1.40;;;11.70;99.90;;;;;;5091286;28;20077;-82
2024/01/03 01:02:39;;;;;;;13.05;1.13;;;11.70;99.90;;;;;;5106374;28;20024;-83
2024/01/03 01:05:05;;;;;;;9.13;0.80;;;11.70;99.90;;;;;;5084307;28;20051;-83
2024/01/03 01:07:30;;;;;;;6.72;0.70;;;11.60;99.90;;;;;;5090345;28;20049;-82
2024/01/03 01:09:56;;;;;;;12.02;1.15;;;11.60;99.90;;;;;;5090846;28;20039;-84
2024/01/03 01:12:22;;;;;;;10.75;1.23;;;11.60;99.90;;;;;;5107267;28;20020;-81
2024/01/03 01:14:48;;;;;;;10.98;1.00;;;11.60;99.90;;;;;;5108825;28;20544;-81
2024/01/03 01:17:14;;;;;;;15.52;1.05;;;11.60;99.90;;;;;;5107953;28;20051;-84
2024/01/03 01:19:40;;;;;;;14.32;3.50;;;11.60;99.90;;;;;;5103253;28;20032;-83
2024/01/03 01:22:06;;;;;;;10.00;1.52;;;11.60;99.90;;;;;;5089555;28;20498;-84
2024/01/03 01:24:31;;;;;;;17.33;1.35;;;11.60;99.90;;;;;;5109581;28;20024;-82
2024/01/03 01:26:57;;;;;;;18.25;1.50;;;11.60;99.90;;;;;;5110083;28;20516;-82
2024/01/03 01:29:22;;;;;;;13.23;1.25;;;11.60;99.90;;;;;;5089801;28;20036;-83
2024/01/03 01:31:48;;;;;;;11.32;0.88;;;11.60;99.90;;;;;;5087355;28;20384;-81
2024/01/03 01:34:14;;;;;;;17.92;2.25;;;11.60;99.90;;;;;;5090834;28;20028;-82
2024/01/03 01:36:40;;;;;;;13.18;1.30;;;11.60;99.90;;;;;;5072929;28;20019;-85
2024/01/03 01:39:05;;;;;;;16.85;1.65;;;11.60;99.90;;;;;;5079253;28;20027;-82
2024/01/03 01:41:31;;;;;;;21.45;2.30;;;11.60;99.90;;;;;;5105538;28;20384;-82
2024/01/03 01:43:56;;;;;;;11.35;1.48;;;11.60;99.90;;;;;;5105751;28;20036;-81
2024/01/03 01:46:23;;;;;;;13.18;1.75;;;11.60;99.90;;;;;;5110364;28;20589;-82
2024/01/03 01:48:51;;;;;;;19.42;1.73;;;11.60;99.90;;;;;;5107152;28;20267;-81
2024/01/03 01:51:16;;;;;;;18.52;1.30;;;11.60;99.90;;;;;;5102358;28;20035;-81
2024/01/03 01:53:42;;;;;;;18.50;1.35;;;11.60;99.90;;;;;;5106637;28;20024;-85
2024/01/03 01:56:10;;;;;;;18.98;1.75;;;11.60;99.90;;;;;;5109548;28;20080;-82
2024/01/03 01:58:38;;;;;;;21.80;1.38;;;11.50;99.90;;;;;;5089244;28;20097;-85
2024/01/03 02:01:04;;;;;;;19.70;1.67;;;11.50;99.90;;;;;;5082394;28;20032;-82
2024/01/03 02:03:30;;;;;;;15.13;1.63;;;11.50;99.90;;;;;;5106199;28;20031;-82
2024/01/03 02:05:56;;;;;;;18.17;1.88;;;11.50;99.90;;;;;;5105892;28;20344;-81
2024/01/03 02:08:22;;;;;;;14.82;1.23;;;11.50;99.90;;;;;;5111601;28;20032;-81
2024/01/03 02:10:48;;;;;;;15.40;1.52;;;11.40;99.90;;;;;;5111785;28;20027;-81
2024/01/03 02:13:13;;;;;;;15.40;1.40;;;11.50;99.90;;;;;;5089226;28;20028;-83
2024/01/03 02:15:39;;;;;;;24.25;2.33;;;11.40;99.90;;;;;;5111657;28;20023;-80
2024/01/03 02:18:07;;;;;;;13.80;1.70;;;11.50;99.90;;;;;;5110310;28;20032;-82
2024/01/03 02:20:33;;;;;;;18.77;2.60;;;11.40;99.90;;;;;;5101821;28;20023;-82
2024/01/03 02:23:00;;;;;;;15.13;1.33;;;11.50;99.90;;;;;;5091504;28;20028;-81
2024/01/03 02:25:25;;;;;;;12.52;1.20;;;11.50;99.90;;;;;;5108722;28;20047;-81
2024/01/03 02:27:51;;;;;;;21.10;1.55;;;11.50;99.90;;;;;;5111144;28;20516;-82
2024/01/03 02:30:16;;;;;;;15.60;1.42;;;11.40;99.90;;;;;;5111262;28;20028;-81
2024/01/03 02:32:42;;;;;;;18.15;1.70;;;11.40;99.90;;;;;;5109078;28;20036;-80
2024/01/03 02:35:08;;;;;;;15.73;1.40;;;11.40;99.90;;;;;;5109608;28;20411;-81
2024/01/03 02:37:34;;;;;;;20.13;1.88;;;11.40;99.90;;;;;;5110184;28;20046;-81
2024/01/03 02:39:59;;;;;;;16.80;1.88;;;11.40;99.90;;;;;;5091425;28;20053;-80
2024/01/03 02:42:25;;;;;;;19.45;1.67;;;11.40;99.90;;;;;;5107239;28;20040;-81
2024/01/03 02:44:50;;;;;;;24.08;2.00;;;11.40;99.90;;;;;;5113439;28;20015;-81
2024/01/03 02:47:16;;;;;;;15.48;1.45;;;11.40;99.90;;;;;;5109103;28;20395;-80
2024/01/03 02:49:42;;;;;;;15.55;1.60;;;11.40;99.90;;;;;;5092458;28;20033;-81
2024/01/03 02:52:07;;;;;;;25.17;2.10;;;11.40;99.90;;;;;;5103831;28;20028;-82
2024/01/03 02:54:33;;;;;;;13.75;1.27;;;11.40;99.90;;;;;;5110563;28;20028;-82
2024/01/03 02:56:58;;;;;;;15.48;1.30;;;11.40;99.90;;;;;;5111546;28;20084;-82
2024/01/03 02:59:27;;;;;;;22.85;2.00;;;11.40;99.90;;;;;;5083785;28;20483;-81
2024/01/03 03:01:52;;;;;;;18.33;1.80;;;11.40;99.90;;;;;;5087650;28;20023;-80
2024/01/03 03:04:18;;;;;;;19.88;1.67;;;11.40;99.90;;;;;;5112628;28;20107;-81
2024/01/03 03:06:43;;;;;;;19.05;2.15;;;11.40;99.90;;;;;;5095139;28;20028;-81
2024/01/03 03:09:09;;;;;;;15.02;1.60;;;11.30;99.90;;;;;;5109601;28;20063;-81
2024/01/03 03:11:35;;;;;;;19.98;2.10;;;11.40;99.90;;;;;;5109416;28;20434;-81
2024/01/03 03:14:00;;;;;;;13.57;1.25;;;11.40;99.90;;;;;;5110188;28;20042;-80
2024/01/03 03:16:26;;;;;;;16.08;2.10;;;11.40;99.90;;;;;;5107330;28;20476;-81
2024/01/03 03:18:51;;;;;;;17.45;2.20;;;11.40;99.90;;;;;;5109942;28;20050;-81
2024/01/03 03:21:17;;;;;;;13.15;1.90;;;11.40;99.90;;;;;;5085456;28;20026;-82
2024/01/03 03:23:42;;;;;;;17.45;2.05;;;11.40;99.90;;;;;;5102786;28;20024;-81
2024/01/03 03:26:11;;;;;;;19.63;2.10;;;11.40;99.90;;;;;;5104259;28;20104;-81
2024/01/03 03:28:36;;;;;;;17.08;2.30;;;11.40;99.90;;;;;;5108720;28;20129;-81
2024/01/03 03:31:03;;;;;;;15.82;1.17;;;11.40;99.90;;;;;;5109044;28;20086;-81
2024/01/03 03:33:31;;;;;;;19.10;1.92;;;11.40;99.90;;;;;;5102151;28;20032;-82
2024/01/03 03:35:57;;;;;;;19.15;1.35;;;11.40;99.90;;;;;;5111621;28;20379;-82
2024/01/03 03:38:22;;;;;;;22.48;1.92;;;11.40;99.90;;;;;;5089295;28;20024;-82
2024/01/03 03:40:48;;;;;;;12.30;1.73;;;11.40;99.90;;;;;;5104103;28;20491;-83
2024/01/03 03:43:13;;;;;;;20.00;1.85;;;11.40;99.90;;;;;;5109696;28;20035;-80
2024/01/03 03:45:39;;;;;;;13.85;1.23;;;11.40;99.90;;;;;;5097542;28;20506;-81
2024/01/03 03:48:05;;;;;;;18.40;1.50;;;11.40;99.90;;;;;;5113749;28;20043;-80
2024/01/03 03:50:31;;;;;;;16.90;1.60;;;11.40;99.90;;;;;;5098185;28;20020;-81
2024/01/03 03:52:56;;;;;;;21.85;2.50;;;11.40;99.90;;;;;;5108481;28;20038;-81
2024/01/03 03:55:22;;;;;;;17.40;1.30;;;11.40;99.90;;;;;;5103470;28;20059;-80
2024/01/03 03:57:48;;;;;;;20.70;1.98;;;11.40;99.90;;;;;;5110288;28;20394;-80
2024/01/03 04:00:14;;;;;;;21.77;2.65;;;11.30;99.90;;;;;;5108984;28;20023;-80
2024/01/03 04:02:40;;;;;;;26.38;3.28;;;11.30;99.90;;;;;;5107365;28;20035;-81
2024/01/03 04:05:06;;;;;;;23.08;3.53;;;11.30;99.90;;;;;;5110398;28;20080;-81
2024/01/03 04:07:31;;;;;;;23.33;5.05;;;11.30;99.90;;;;;;5109533;28;20031;-81
2024/01/03 04:09:57;;;;;;;27.85;6.43;;;11.30;99.90;;;;;;5108892;28;20144;-81
2024/01/03 04:12:23;;;;;;;31.30;8.32;;;11.40;99.90;;;;;;5099895;28;20030;-80
2024/01/03 04:14:48;;;;;;;35.10;9.40;;;11.30;99.90;;;;;;5089607;28;20028;-80
2024/01/03 04:17:15;;;;;;;43.10;10.52;;;11.40;99.90;;;;;;5106190;28;20039;-81
2024/01/03 04:19:41;;;;;;;42.20;8.50;;;11.40;99.90;;;;;;5108348;28;20020;-80
2024/01/03 04:22:07;;;;;;;35.17;7.55;;;11.40;99.90;;;;;;5107013;28;20023;-81
2024/01/03 04:24:32;;;;;;;24.95;7.13;;;11.30;99.90;;;;;;5110740;28;20102;-81
2024/01/03 04:26:58;;;;;;;23.55;4.63;;;11.30;99.90;;;;;;5096653;28;20024;-81
2024/01/03 04:29:23;;;;;;;27.08;4.40;;;11.30;99.90;;;;;;5109109;28;20028;-81
2024/01/03 04:31:49;;;;;;;23.95;3.75;;;11.30;99.90;;;;;;5092976;28;20076;-81
2024/01/03 04:34:15;;;;;;;27.52;3.67;;;11.20;99.90;;;;;;5112864;28;20099;-81
2024/01/03 04:36:40;;;;;;;19.63;2.08;;;11.20;99.90;;;;;;5089388;28;20024;-80
2024/01/03 04:39:06;;;;;;;20.50;2.05;;;11.20;99.90;;;;;;5105232;28;20023;-80
2024/01/03 04:41:31;;;;;;;21.25;2.08;;;11.20;99.90;;;;;;5109913;28;20463;-81
2024/01/03 04:43:57;;;;;;;21.33;3.17;;;11.20;99.90;;;;;;5110787;28;20042;-81
2024/01/03 04:46:23;;;;;;;17.42;2.20;;;11.20;99.90;;;;;;5107256;28;20055;-80
2024/01/03 04:48:48;;;;;;;23.67;2.70;;;11.10;99.90;;;;;;5101378;28;20035;-81
2024/01/03 04:51:17;;;;;;;17.85;1.50;;;11.10;99.90;;;;;;5110099;28;20489;-81
2024/01/03 04:53:43;;;;;;;21.30;1.85;;;11.10;99.90;;;;;;5109493;28;20038;-81
2024/01/03 04:56:09;;;;;;;23.48;2.47;;;11.10;99.90;;;;;;5111476;28;20023;-81
2024/01/03 04:58:34;;;;;;;24.67;2.38;;;11.00;99.90;;;;;;5102989;28;20102;-81
2024/01/03 05:01:00;;;;;;;21.27;1.90;;;11.00;99.90;;;;;;5108583;28;20047;-81
2024/01/03 05:03:26;;;;;;;16.17;2.17;;;10.90;99.90;;;;;;5106745;28;20024;-81
2024/01/03 05:05:51;;;;;;;25.45;2.53;;;10.90;99.90;;;;;;5110241;28;20023;-81
2024/01/03 05:08:17;;;;;;;18.25;1.95;;;10.80;99.90;;;;;;5108922;28;20044;-81
2024/01/03 05:10:43;;;;;;;23.88;2.97;;;10.80;99.90;;;;;;5110823;28;20012;-80
2024/01/03 05:13:08;;;;;;;18.73;3.05;;;10.70;99.90;;;;;;5110899;28;20039;-81
2024/01/03 05:15:34;;;;;;;19.65;2.42;;;10.60;99.90;;;;;;5109236;28;20039;-80
2024/01/03 05:17:59;;;;;;;21.63;2.20;;;10.60;99.90;;;;;;5106971;28;20045;-81
2024/01/03 05:20:25;;;;;;;20.73;1.77;;;10.50;99.90;;;;;;5101085;28;20024;-82
2024/01/03 05:22:50;;;;;;;24.10;2.53;;;10.60;99.90;;;;;;5106485;28;21230;-81
2024/01/03 05:25:16;;;;;;;13.85;1.75;;;10.60;99.90;;;;;;5111081;28;20498;-81
2024/01/03 05:27:42;;;;;;;16.42;2.47;;;10.50;99.90;;;;;;5109308;28;20031;-80
2024/01/03 05:30:08;;;;;;;17.30;1.52;;;10.60;99.90;;;;;;5106992;28;20038;-80
2024/01/03 05:32:33;;;;;;;16.25;1.75;;;10.50;99.90;;;;;;5107756;28;20126;-80
2024/01/03 05:34:59;;;;;;;20.20;1.67;;;10.50;99.90;;;;;;5111428;28;20518;-82
2024/01/03 05:37:24;;;;;;;11.65;1.38;;;10.50;99.90;;;;;;5112273;28;20054;-81
2024/01/03 05:39:50;;;;;;;11.18;1.30;;;10.50;99.90;;;;;;5107123;28;20122;-81
2024/01/03 05:42:16;;;;;;;9.93;1.10;;;10.60;99.90;;;;;;5094420;28;20024;-81
2024/01/03 05:44:41;;;;;;;14.43;1.50;;;10.60;99.90;;;;;;5107918;28;20467;-81
2024/01/03 05:47:07;;;;;;;12.48;1.85;;;10.60;99.90;;;;;;5089218;28;20054;-80
2024/01/03 05:49:34;;;;;;;11.55;2.25;;;10.60;99.90;;;;;;5107263;27;20036;-81
2024/01/03 05:51:59;;;;;;;13.15;1.20;;;10.60;99.90;;;;;;5085515;28;20028;-80
2024/01/03 05:54:26;;;;;;;8.65;0.85;;;10.60;99.90;;;;;;5104385;28;20852;-80
2024/01/03 05:56:52;;;;;;;5.38;0.60;;;10.60;99.90;;;;;;5093646;28;20045;-81
2024/01/03 05:59:17;;;;;;;12.50;0.93;;;10.70;99.90;;;;;;5112065;28;20099;-80
2024/01/03 06:01:45;;;;;;;11.93;1.75;;;10.60;99.90;;;;;;5112147;28;20487;-81
2024/01/03 06:04:11;;;;;;;7.38;0.80;;;10.60;99.90;;;;;;5101316;28;20024;-81
2024/01/03 06:06:36;;;;;;;6.18;0.60;;;10.60;99.90;;;;;;5110603;28;20031;-82
2024/01/03 06:09:02;;;;;;;7.90;1.05;;;10.60;99.90;;;;;;5115000;28;20169;-81
2024/01/03 06:11:28;;;;;;;7.50;0.63;;;10.50;99.90;;;;;;5095498;28;20035;-81
2024/01/03 06:13:54;;;;;;;5.15;0.50;;;10.60;99.90;;;;;;5094968;28;20088;-82
2024/01/03 06:16:20;;;;;;;9.45;0.65;;;10.60;99.90;;;;;;5114213;28;20027;-80
2024/01/03 06:18:45;;;;;;;7.20;0.55;;;10.50;99.90;;;;;;5112771;28;20020;-81
2024/01/03 06:21:11;;;;;;;4.82;0.30;;;10.50;99.90;;;;;;5104224;28;20035;-82
2024/01/03 06:23:38;;;;;;;6.10;0.60;;;10.40;99.90;;;;;;5105468;28;20450;-82
2024/01/03 06:26:07;;;;;;;5.60;0.50;;;10.40;99.90;;;;;;5105777;27;20022;-81
2024/01/03 06:28:33;;;;;;;10.93;0.70;;;10.50;99.90;;;;;;5108884;28;20425;-82
2024/01/03 06:30:59;;;;;;;7.13;0.80;;;10.50;99.90;;;;;;5104644;28;20353;-81
2024/01/03 06:33:24;;;;;;;3.10;0.30;;;10.40;99.90;;;;;;5110864;28;20108;-81
2024/01/03 06:35:50;;;;;;;9.73;0.50;;;10.40;99.90;;;;;;5113889;28;20493;-81
2024/01/03 06:38:16;;;;;;;8.20;0.70;;;10.50;99.90;;;;;;5113321;28;20023;-80
2024/01/03 06:40:41;;;;;;;5.53;0.50;;;10.40;99.90;;;;;;5112026;28;20028;-81
2024/01/03 06:43:07;;;;;;;5.68;0.45;;;10.40;99.90;;;;;;5112009;28;20027;-81
2024/01/03 06:45:32;;;;;;;3.90;0.30;;;10.50;99.90;;;;;;5108918;28;20036;-81
2024/01/03 06:47:58;;;;;;;3.97;0.40;;;10.40;99.90;;;;;;5108075;27;20043;-81
2024/01/03 06:50:24;;;;;;;3.60;0.20;;;10.40;99.90;;;;;;5108834;28;20391;-82
2024/01/03 06:52:49;;;;;;;3.13;0.15;;;10.30;99.90;;;;;;5104088;28;20031;-81
2024/01/03 06:55:15;;;;;;;2.92;0.10;;;10.30;99.90;;;;;;5108045;28;20109;-81
2024/01/03 06:57:41;;;;;;;2.85;0.20;;;10.20;99.90;;;;;;5105769;28;20055;-81
2024/01/03 07:00:07;;;;;;;1.35;0.10;;;10.20;99.90;;;;;;5105580;28;20023;-81
2024/01/03 07:02:33;;;;;;;2.67;0.13;;;10.10;99.90;;;;;;5095745;27;20548;-81
2024/01/03 07:04:59;;;;;;;1.45;0.17;;;10.00;99.90;;;;;;5083606;28;20110;-81
2024/01/03 07:07:24;;;;;;;5.13;0.30;;;10.00;99.90;;;;;;5102171;28;20032;-82
2024/01/03 07:09:50;;;;;;;3.28;0.20;;;9.90;99.90;;;;;;5111183;28;20050;-81
2024/01/03 07:12:16;;;;;;;2.75;0.30;;;9.80;99.90;;;;;;5108132;28;20027;-81
2024/01/03 07:14:41;;;;;;;2.17;0.28;;;9.70;99.90;;;;;;5109627;28;20027;-80
2024/01/03 07:17:07;;;;;;;3.03;0.20;;;9.60;99.90;;;;;;5093676;28;20030;-80
2024/01/03 07:19:32;;;;;;;3.90;0.20;;;9.50;99.90;;;;;;5109011;28;20486;-80
2024/01/03 07:21:58;;;;;;;3.72;0.30;;;9.50;99.90;;;;;;5110217;28;20039;-85
2024/01/03 07:24:23;;;;;;;2.75;0.20;;;9.40;99.90;;;;;;5093903;28;20391;-85
2024/01/03 07:26:49;;;;;;;3.30;0.20;;;9.40;99.90;;;;;;5108258;28;20371;-85
2024/01/03 07:29:15;;;;;;;2.65;0.20;;;9.40;99.90;;;;;;5094682;28;20043;-84
2024/01/03 07:31:40;;;;;;;2.92;0.10;;;9.30;99.90;;;;;;5113243;28;20027;-85
2024/01/03 07:34:06;;;;;;;1.52;0.10;;;9.30;99.90;;;;;;5113563;28;20035;-84
2024/01/03 07:36:32;;;;;;;1.88;0.17;;;9.20;99.90;;;;;;5092815;28;20390;-86
2024/01/03 07:39:00;;;;;;;1.42;0.08;;;9.20;99.90;;;;;;5103247;28;20131;-85
2024/01/03 07:41:26;;;;;;;3.13;0.10;;;9.20;99.90;;;;;;5111990;28;20020;-85
2024/01/03 07:43:51;;;;;;;1.17;0.10;;;9.10;99.90;;;;;;5095284;28;20337;-85
2024/01/03 07:46:17;;;;;;;1.65;0.10;;;9.10;99.90;;;;;;5092269;28;20130;-84
2024/01/03 07:48:43;;;;;;;2.28;0.08;;;9.00;99.90;;;;;;5094370;28;20035;-85
2024/01/03 07:51:10;;;;;;;1.63;0.10;;;9.00;99.90;;;;;;5100405;28;20027;-85
2024/01/03 07:53:37;;;;;;;3.03;0.15;;;9.00;99.90;;;;;;5101902;28;20042;-84
2024/01/03 07:56:05;;;;;;;1.50;0.00;;;9.00;99.90;;;;;;5112582;28;20030;-85
2024/01/03 07:58:31;;;;;;;1.75;0.10;;;9.10;99.90;;;;;;5109571;28;20015;-84
2024/01/03 08:00:57;;;;;;;2.10;0.10;;;9.10;99.90;;;;;;5093248;28;20364;-85
2024/01/03 08:03:22;;;;;;;2.90;0.10;;;9.10;99.90;;;;;;5102238;28;20072;-85
2024/01/03 08:05:48;;;;;;;3.35;0.30;;;9.20;99.90;;;;;;5106282;28;20034;-84
2024/01/03 08:08:14;;;;;;;4.30;0.30;;;9.10;99.90;;;;;;5091954;28;20031;-85
2024/01/03 08:10:40;;;;;;;6.82;0.25;;;9.20;99.90;;;;;;5108402;28;20495;-85
2024/01/03 08:13:05;;;;;;;5.47;0.20;;;9.20;99.90;;;;;;5102666;28;20062;-85
2024/01/03 08:15:31;;;;;;;6.95;0.60;;;9.30;99.90;;;;;;5089413;28;20039;-85
2024/01/03 08:17:56;;;;;;;6.45;0.65;;;9.30;99.90;;;;;;5087852;28;20019;-85
2024/01/03 08:20:22;;;;;;;6.25;0.40;;;9.30;99.90;;;;;;5085524;28;20027;-85
2024/01/03 08:22:48;;;;;;;4.10;0.50;;;9.40;99.90;;;;;;5106098;28;20383;-84
2024/01/03 08:25:15;;;;;;;5.05;0.65;;;9.40;99.90;;;;;;5111050;27;20023;-85
2024/01/03 08:27:41;;;;;;;6.30;0.65;;;9.40;99.90;;;;;;5107045;28;20020;-85
2024/01/03 08:30:07;;;;;;;6.13;1.35;;;9.40;99.90;;;;;;5111184;28;20031;-83
2024/01/03 08:32:35;;;;;;;4.43;0.63;;;9.40;99.90;;;;;;5113198;28;20104;-85
2024/01/03 08:35:03;;;;;;;2.63;0.60;;;9.50;99.90;;;;;;5112919;27;20023;-84
2024/01/03 08:37:29;;;;;;;5.65;0.80;;;9.50;99.90;;;;;;5113117;28;20055;-85
2024/01/03 08:39:55;;;;;;;3.53;1.00;;;9.50;99.90;;;;;;5113261;28;20024;-84
2024/01/03 08:42:23;;;;;;;4.80;1.08;;;9.50;99.90;;;;;;5103960;28;20019;-85
2024/01/03 08:44:50;;;;;;;6.10;1.38;;;9.50;99.90;;;;;;5102167;28;20024;-85
2024/01/03 08:47:16;;;;;;;6.82;1.77;;;9.50;99.90;;;;;;5110450;28;20043;-84
2024/01/03 08:49:43;;;;;;;9.25;1.90;;;9.50;99.90;;;;;;5100908;28;20130;-84
2024/01/03 08:52:09;;;;;;;7.95;2.35;;;9.50;99.90;;;;;;5106496;28;20020;-85
2024/01/03 08:54:34;;;;;;;8.70;2.08;;;9.50;99.90;;;;;;5090843;28;20077;-85
2024/01/03 08:57:00;;;;;;;9.13;2.42;;;9.50;99.90;;;;;;5101654;28;20076;-83
2024/01/03 08:59:26;;;;;;;11.50;3.22;;;9.50;99.90;;;;;;5113683;28;20023;-84
2024/01/03 09:02:01;;;;;;;11.60;1.95;;;9.50;99.90;;;;;;5107148;28;20055;-85
2024/01/03 09:04:27;;;;;;;8.80;1.73;;;9.50;99.90;;;;;;5105680;28;20071;-84
2024/01/03 09:06:52;;;;;;;7.93;2.20;;;9.50;99.90;;;;;;5109452;28;20058;-84
2024/01/03 09:09:18;;;;;;;11.25;2.00;;;9.50;99.90;;;;;;5113478;28;20043;-85
2024/01/03 09:11:44;;;;;;;10.65;2.20;;;9.50;99.90;;;;;;5106195;28;20463;-85
2024/01/03 09:14:10;;;;;;;10.23;2.05;;;9.50;99.90;;;;;;5104793;28;20037;-85
2024/01/03 09:16:36;;;;;;;16.10;2.25;;;9.60;99.90;;;;;;5102010;28;20076;-84
2024/01/03 09:19:02;;;;;;;12.48;2.22;;;9.60;99.90;;;;;;5110457;28;20019;-84
2024/01/03 09:21:31;;;;;;;13.18;1.55;;;9.60;99.90;;;;;;5113121;28;20063;-84
2024/01/03 09:23:57;;;;;;;8.23;1.52;;;9.60;99.90;;;;;;5090468;28;20019;-84
2024/01/03 09:26:23;;;;;;;16.33;1.50;;;9.60;99.90;;;;;;5093364;28;20392;-83
2024/01/03 09:28:49;;;;;;;11.43;1.13;;;9.70;99.90;;;;;;5105226;28;20036;-83
2024/01/03 09:31:15;;;;;;;12.98;1.10;;;9.60;99.90;;;;;;5090166;28;20024;-85
2024/01/03 09:33:40;;;;;;;14.65;2.33;;;9.70;99.90;;;;;;5098250;28;20480;-84
2024/01/03 09:36:15;;;;;;;17.05;1.83;;;9.70;99.90;;;;;;5097039;28;20038;-85
2024/01/03 09:38:41;;;;;;;16.65;1.65;;;9.70;99.90;;;;;;5098432;28;20169;-85
2024/01/03 09:41:12;;;;;;;14.57;1.42;;;9.70;99.90;;;;;;5103200;28;20424;-84
2024/01/03 09:43:41;;;;;;;12.25;1.05;;;9.80;99.90;;;;;;5113151;28;20032;-83
2024/01/03 09:46:06;;;;;;;12.38;1.33;;;9.90;99.90;;;;;;5103473;28;20036;-83
2024/01/03 09:48:32;;;;;;;18.05;1.52;;;9.90;99.90;;;;;;5105506;28;20058;-85
2024/01/03 09:51:01;;;;;;;23.42;2.35;;;10.00;99.90;;;;;;5098466;28;20483;-86
2024/01/03 09:53:28;;;;;;;24.45;1.98;;;10.10;99.90;;;;;;5109312;28;20119;-85
2024/01/03 09:55:54;;;;;;;21.13;1.85;;;10.10;99.90;;;;;;5106846;28;20406;-84
2024/01/03 09:58:22;;;;;;;21.23;2.13;;;10.10;99.90;;;;;;5111589;28;20077;-84
2024/01/03 10:00:47;;;;;;;14.00;1.88;;;10.20;99.90;;;;;;5104214;28;20016;-84
2024/01/03 10:03:13;;;;;;;15.15;1.45;;;10.20;99.90;;;;;;5098191;28;20039;-84
2024/01/03 10:05:39;;;;;;;30.73;2.50;;;10.20;99.90;;;;;;5109411;28;20028;-84
2024/01/03 10:08:16;;;;;;;17.45;2.33;;;10.30;99.90;;;;;;5091230;28;20036;-84
2024/01/03 10:10:43;;;;;;;21.85;2.88;;;10.30;99.90;;;;;;5108734;28;20023;-84
2024/01/03 10:13:18;;;;;;;16.48;1.67;;;10.30;99.90;;;;;;5105564;28;20028;-83
2024/01/03 10:15:45;;;;;;;19.00;2.03;;;10.40;99.90;;;;;;5112265;28;20024;-85
2024/01/03 10:18:14;;;;;;;16.83;1.90;;;10.40;99.90;;;;;;5112688;28;20506;-85
2024/01/03 10:20:40;;;;;;;19.35;2.72;;;10.50;99.90;;;;;;5109529;28;20060;-84
2024/01/03 10:23:10;;;;;;;22.75;2.40;;;10.50;99.90;;;;;;5112770;28;20028;-85
2024/01/03 10:25:40;;;;;;;22.63;1.95;;;10.50;99.90;;;;;;5078067;28;20024;-84
2024/01/03 10:28:09;;;;;;;20.65;1.67;;;10.40;99.90;;;;;;5096777;28;20055;-83
2024/01/03 10:30:35;;;;;;;23.83;2.22;;;10.40;99.90;;;;;;5096497;28;20540;-83
2024/01/03 10:33:04;;;;;;;18.20;2.47;;;10.50;99.90;;;;;;5116403;28;20027;-84
2024/01/03 10:35:31;;;;;;;20.02;2.17;;;10.60;99.90;;;;;;5115403;28;20467;-84
2024/01/03 10:38:01;;;;;;;14.75;2.28;;;10.70;99.90;;;;;;5115794;28;20052;-85
2024/01/03 10:40:29;;;;;;;16.50;2.25;;;10.80;99.90;;;;;;5080502;28;20483;-85
2024/01/03 10:42:55;;;;;;;20.75;3.08;;;10.80;99.90;;;;;;5097857;28;20084;-85
2024/01/03 10:45:21;;;;;;;20.67;2.67;;;10.80;99.90;;;;;;5111985;28;20047;-83
2024/01/03 10:47:47;;;;;;;21.38;2.42;;;10.80;99.90;;;;;;5103931;27;20069;-84
2024/01/03 10:50:13;;;;;;;23.48;2.45;;;10.80;99.90;;;;;;5100550;28;20149;-83
2024/01/03 10:52:43;;;;;;;21.05;2.63;;;10.80;99.90;;;;;;5110539;28;20055;-81
2024/01/03 10:55:24;;;;;;;27.13;3.35;;;10.80;99.90;;;;;;5106829;28;20019;-85
2024/01/03 10:57:56;;;;;;;21.95;2.22;;;10.80;99.90;;;;;;5114770;28;20073;-86
2024/01/03 11:00:40;;;;;;;;;;;10.80;99.90;;;;;;5111801;28;20043;-86
2024/01/03 11:03:25;;;;;;;18.35;1.90;;;10.90;99.90;;;;;;5103120;28;19915;-84
2024/01/03 11:06:19;;;;;;;23.48;2.80;;;10.90;99.90;;;;;;5095405;28;20043;-82
2024/01/03 11:08:51;;;;;;;17.10;2.28;;;10.90;99.90;;;;;;5107830;28;20035;-80
2024/01/03 11:11:37;;;;;;;20.30;2.05;;;11.10;99.90;;;;;;5113590;28;20023;-81
2024/01/03 11:14:21;;;;;;;19.02;1.70;;;11.10;99.90;;;;;;5080456;28;20031;-81
2024/01/03 11:16:47;;;;;;;18.17;2.35;;;11.20;99.90;;;;;;5101893;28;20216;-81
2024/01/03 11:19:13;;;;;;;22.38;1.98;;;11.20;99.90;;;;;;5113592;28;20130;-81
2024/01/03 11:21:49;;;;;;;15.40;1.80;;;11.20;99.90;;;;;;5113682;28;20032;-81
2024/01/03 11:24:27;;;;;;;20.88;2.35;;;11.20;99.90;;;;;;5100067;28;20080;-82
2024/01/03 11:26:53;;;;;;;21.98;2.25;;;11.20;99.90;;;;;;5092879;28;20103;-82
2024/01/03 11:29:45;;;;;;;21.80;2.53;;;11.20;99.90;;;;;;5105515;28;20156;-82
2024/01/03 11:32:24;;;;;;;20.42;1.90;;;11.20;99.90;;;;;;5108891;28;20044;-81
2024/01/03 11:34:50;;;;;;;29.80;3.33;;;11.20;99.90;;;;;;5108328;28;20032;-81
2024/01/03 11:37:21;;;;;;;32.83;3.72;;;11.20;99.90;;;;;;5109052;28;20072;-80
2024/01/03 11:39:52;;;;;;;27.25;2.35;;;11.20;99.90;;;;;;5106397;28;20032;-81
2024/01/03 11:42:28;;;;;;;19.00;2.55;;;11.20;99.90;;;;;;5078479;28;20036;-81
2024/01/03 11:45:01;;;;;;;22.52;2.60;;;11.30;99.90;;;;;;5097613;28;20055;-81
2024/01/03 11:47:26;;;;;;;26.17;3.58;;;11.20;99.90;;;;;;5106814;28;20400;-80
2024/01/03 11:49:56;;;;;;;31.15;3.70;;;11.20;99.90;;;;;;5088462;28;20080;-81
2024/01/03 11:52:22;;;;;;;27.08;2.47;;;11.20;99.90;;;;;;5099351;28;20061;-83
2024/01/03 11:54:50;;;;;;;28.33;3.45;;;11.20;99.90;;;;;;5104759;28;20027;-82
2024/01/03 11:57:16;;;;;;;25.92;2.20;;;11.20;99.90;;;;;;5103657;28;20031;-81
2024/01/03 11:59:41;;;;;;;22.58;2.78;;;11.10;99.90;;;;;;5095942;28;20024;-82
2024/01/03 12:02:07;;;;;;;16.90;2.90;;;11.10;99.90;;;;;;5113696;28;20491;-82
2024/01/03 12:04:33;;;;;;;27.73;3.00;;;11.10;99.90;;;;;;5094212;28;20031;-82
2024/01/03 12:06:59;;;;;;;19.33;1.80;;;11.00;99.90;;;;;;5111078;28;20047;-81
2024/01/03 12:09:29;;;;;;;15.13;1.65;;;10.90;99.90;;;;;;5103868;28;20089;-80
2024/01/03 12:11:55;;;;;;;17.52;2.70;;;10.80;99.90;;;;;;5095272;28;20139;-82
2024/01/03 12:14:21;;;;;;;20.27;2.30;;;10.80;99.90;;;;;;5109071;27;20080;-81
2024/01/03 12:16:56;;;;;;;12.55;1.30;;;10.70;99.90;;;;;;5090259;28;20422;-79
2024/01/03 12:19:26;;;;;;;13.32;1.17;;;10.70;99.90;;;;;;5091869;28;20479;-79
2024/01/03 12:21:59;;;;;;;10.50;1.15;;;10.60;99.90;;;;;;5113208;28;20040;-80
2024/01/03 12:24:38;;;;;;;13.35;1.00;;;10.60;99.90;;;;;;5094011;28;20024;-81
2024/01/03 12:27:05;;;;;;;10.13;0.70;;;10.70;99.90;;;;;;5091448;28;22495;-81
2024/01/03 12:29:33;;;;;;;6.13;0.50;;;10.70;99.90;;;;;;5103414;28;20039;-81
2024/01/03 12:32:11;;;;;;;7.30;0.82;;;10.80;99.90;;;;;;5110856;28;20019;-80
2024/01/03 12:34:37;;;;;;;3.53;0.32;;;10.80;99.90;;;;;;5092841;28;20024;-80
2024/01/03 12:37:02;;;;;;;5.72;0.65;;;10.80;99.90;;;;;;5108244;28;20362;-80
2024/01/03 12:39:36;;;;;;;3.85;0.30;;;10.90;99.90;;;;;;5112352;28;20032;-81
2024/01/03 12:42:07;;;;;;;6.38;0.30;;;10.90;99.90;;;;;;5112572;28;20024;-81